Redgranite, Wisconsin
Current Conditions -  °F | °C
As of 11:56 AM on Wednesday 28 Jan 2015 (Local Time) from KY50 Reporting Station
Overcast Overcast  
Wind Chill: -8°   Ceiling: 1700
Heat Index: -2°   Visibility: 10mi
Dew Point: -6°   Wind: 14mph
Humidity: 75%   Direction: 170°S
Pressure: 30.13"   Gusts: 22mph
Location:  44.04°N, 89.1°W
Report Text: KY50 281756Z AUTO 17012G19KT 10SM OVC017 M02/M06 A3013 RMK AO2 TSNO 56020 T10161055 11016 21050 SLP211
Loading
Personal Weather Stations






























Interactive Weather Map New forecast layout! Learn more

10-Day Weather Forecast

Advertisements
Track Severe Weather on mobile